Time;durP1;ratioP1;P1;durP2;ratioP2;P2;SDS_P1;SDS_P2;PMS_P1;PMS_P2;Temp;Humidity;BMP_temperature;BMP_pressure;BME280_temperature;BME280_humidity;BME280_pressure;Samples;Min_cycle;Max_cycle;Signal;HPM_P1;HPM_P2
2022/10/03 02:18:43;;;;;;;20.87;15.20;;;;;;;14.35;100.00;97360.06;6229223;22;884176;-75
2022/10/03 02:21:22;;;;;;;19.10;13.57;;;;;;;14.48;100.00;97346.84;6247506;22;20336;-70
2022/10/03 02:23:51;;;;;;;18.92;14.10;;;;;;;14.49;100.00;97361.91;6211213;22;20011;-76
2022/10/03 02:26:33;;;;;;;13.88;10.57;;;;;;;14.62;100.00;97382.66;6238338;22;20012;-73
2022/10/03 02:29:03;;;;;;;19.13;14.38;;;;;;;14.52;100.00;97356.16;6238710;22;20145;-75
2022/10/03 02:32:06;;;;;;;19.00;13.63;;;;;;;14.69;100.00;97375.50;6238056;22;20020;-74
2022/10/03 02:34:59;;;;;;;14.98;11.00;;;;;;;14.68;100.00;97349.72;6243880;22;20022;-72
2022/10/03 02:37:41;;;;;;;16.63;11.05;;;;;;;14.71;100.00;97346.66;6250185;22;20016;-74
2022/10/03 02:40:24;;;;;;;16.02;12.82;;;;;;;14.65;100.00;97348.25;6248507;22;20027;-73
2022/10/03 02:43:16;;;;;;;18.20;12.07;;;;;;;14.69;100.00;97357.56;6240879;22;20370;-75
2022/10/03 02:46:05;;;;;;;17.58;11.65;;;;;;;14.67;100.00;97351.56;6249328;22;20019;-73
2022/10/03 02:48:49;;;;;;;17.23;11.35;;;;;;;14.71;100.00;97347.47;6242088;22;20047;-73
2022/10/03 02:51:32;;;;;;;17.10;12.13;;;;;;;14.66;100.00;97354.47;6240620;22;20043;-73
2022/10/03 02:54:34;;;;;;;15.80;12.90;;;;;;;14.73;100.00;97340.09;6238751;22;20103;-79
2022/10/03 02:57:24;;;;;;;16.08;11.35;;;;;;;14.74;100.00;97324.81;6212945;22;20018;-73
2022/10/03 03:00:09;;;;;;;18.77;12.27;;;;;;;14.65;99.87;97328.66;6238736;22;20520;-76
2022/10/03 03:02:53;;;;;;;14.80;11.95;;;;;;;14.61;99.65;97338.94;6238492;22;20065;-75
2022/10/03 03:05:31;;;;;;;16.73;10.17;;;;;;;14.76;99.72;97337.03;6239038;22;20019;-70
2022/10/03 03:08:16;;;;;;;17.48;11.63;;;;;;;14.68;99.37;97320.22;6236724;22;20351;-73
2022/10/03 03:11:15;;;;;;;12.73;8.10;;;;;;;14.79;99.78;97317.00;6238666;22;20015;-71
2022/10/03 03:14:17;;;;;;;10.88;9.18;;;;;;;14.79;99.34;97307.13;6238759;22;20041;-72
2022/10/03 03:16:51;;;;;;;15.98;10.90;;;;;;;14.72;99.42;97308.09;6237423;22;20016;-78
2022/10/03 03:19:22;;;;;;;16.95;9.15;;;;;;;14.79;99.18;97314.31;6233588;22;20024;-79
2022/10/03 03:22:26;;;;;;;12.30;10.02;;;;;;;14.75;99.08;97315.75;6179485;22;20069;-73
2022/10/03 03:25:25;;;;;;;13.15;10.55;;;;;;;14.82;99.27;97336.25;6205915;22;20007;-73
2022/10/03 03:28:14;;;;;;;13.40;8.55;;;;;;;14.84;98.76;97312.75;6235413;22;20011;-75
2022/10/03 03:31:00;;;;;;;6.63;5.05;;;;;;;14.90;98.76;97308.44;6238834;22;20386;-73
2022/10/03 03:33:31;;;;;;;8.25;5.90;;;;;;;14.89;98.60;97299.59;6234718;22;20645;-75
2022/10/03 03:36:33;;;;;;;16.17;10.80;;;;;;;14.79;98.36;97299.06;6231408;22;20023;-72
2022/10/03 03:39:04;;;;;;;12.60;8.73;;;;;;;14.80;98.29;97299.91;6231274;22;20087;-73
2022/10/03 03:41:45;;;;;;;10.95;8.43;;;;;;;14.81;98.21;97302.38;6230147;22;20019;-75
2022/10/03 03:44:28;;;;;;;10.07;8.10;;;;;;;14.88;98.30;97307.84;6229683;22;20393;-76
2022/10/03 03:47:01;;;;;;;13.70;11.15;;;;;;;14.77;98.62;97303.81;6230948;22;20074;-72
2022/10/03 03:49:46;;;;;;;12.63;8.32;;;;;;;14.92;98.42;97294.84;6212784;22;20015;-73
2022/10/03 03:52:44;;;;;;;14.65;10.80;;;;;;;14.86;98.44;97285.72;6228123;22;20038;-73
2022/10/03 03:55:37;;;;;;;13.57;10.27;;;;;;;14.93;98.36;97289.28;6229952;22;20027;-72
2022/10/03 03:58:23;;;;;;;15.02;8.68;;;;;;;14.93;98.13;97283.91;6230189;22;20037;-73
2022/10/03 04:01:02;;;;;;;14.40;10.32;;;;;;;14.80;97.99;97275.75;6228506;22;20346;-75
2022/10/03 04:03:43;;;;;;;12.65;8.43;;;;;;;14.86;98.26;97269.63;6228296;22;20065;-74
2022/10/03 04:06:24;;;;;;;10.15;8.88;;;;;;;14.83;98.69;97257.44;6203908;22;20491;-75
2022/10/03 04:09:16;;;;;;;15.48;10.07;;;;;;;14.86;98.47;97265.09;6230124;22;20020;-75
2022/10/03 04:12:08;;;;;;;16.30;10.55;;;;;;;14.81;98.29;97259.47;6215791;22;20015;-74
2022/10/03 04:15:11;;;;;;;17.23;8.02;;;;;;;14.88;98.06;97241.59;6210055;22;20065;-73
2022/10/03 04:21:03;;;;;;;17.75;11.57;;;;;;;14.87;97.83;97226.53;6231224;22;20031;-74
2022/10/03 04:23:37;;;;;;;13.52;9.93;;;;;;;14.94;97.81;97217.69;6231281;22;20501;-74
2022/10/03 04:26:03;;;;;;;15.20;12.48;;;;;;;14.87;97.68;97231.88;6230902;22;20112;-75
2022/10/03 04:28:52;;;;;;;15.43;13.23;;;;;;;14.91;97.71;97232.31;6229755;22;20012;-74
2022/10/03 04:31:31;;;;;;;16.42;12.32;;;;;;;15.01;97.73;97234.66;6231008;22;20019;-72
2022/10/03 04:33:59;;;;;;;17.35;13.60;;;;;;;14.99;97.58;97226.81;6204682;22;20331;-73
2022/10/03 04:36:55;;;;;;;21.88;15.45;;;;;;;14.98;97.78;97227.84;6204049;22;20433;-72
2022/10/03 04:39:41;;;;;;;20.35;15.55;;;;;;;15.01;98.00;97232.78;6229161;22;20025;-72
2022/10/03 04:42:12;;;;;;;15.60;10.80;;;;;;;15.10;97.97;97207.47;6228915;22;20023;-71
2022/10/03 04:45:10;;;;;;;18.55;14.93;;;;;;;15.11;97.67;97233.28;6228590;22;20069;-72
2022/10/03 04:47:52;;;;;;;15.88;13.52;;;;;;;15.10;97.70;97215.53;6228253;22;20358;-71
2022/10/03 04:50:27;;;;;;;24.83;16.83;;;;;;;15.13;97.33;97225.03;6228229;22;20026;-74
2022/10/03 04:53:06;;;;;;;17.55;13.43;;;;;;;15.23;97.16;97220.16;6228405;22;20046;-74
2022/10/03 04:55:44;;;;;;;25.80;17.40;;;;;;;15.22;96.45;97224.69;6228447;22;20141;-74
2022/10/03 04:58:31;;;;;;;23.27;17.67;;;;;;;15.20;96.83;97215.16;6228206;22;20450;-74
2022/10/03 05:01:06;;;;;;;21.45;17.42;;;;;;;15.20;96.35;97193.69;6240071;22;20015;-75
2022/10/03 05:03:44;;;;;;;20.40;15.27;;;;;;;15.21;96.65;97196.19;6228438;22;20042;-74
2022/10/03 05:06:25;;;;;;;27.80;18.05;;;;;;;15.29;96.27;97176.41;6230012;22;20104;-75
2022/10/03 05:09:29;;;;;;;12.75;9.07;;;;;;;15.31;95.65;97193.13;6202777;22;20022;-75
2022/10/03 05:12:15;;;;;;;17.67;13.05;;;;;;;15.34;95.08;97190.06;6228526;22;20011;-74
2022/10/03 05:15:20;;;;;;;28.42;17.17;;;;;;;15.30;94.35;97188.78;6230379;22;20094;-76
2022/10/03 05:18:26;;;;;;;21.30;13.70;;;;;;;15.34;94.42;97170.44;6230856;22;20016;-73
2022/10/03 05:21:13;;;;;;;21.20;16.08;;;;;;;15.29;94.29;97180.94;6141560;23;20360;-73
2022/10/03 05:23:43;;;;;;;15.07;11.93;;;;;;;15.24;94.27;97173.47;6166891;23;20100;-73
2022/10/03 05:26:27;;;;;;;12.02;9.15;;;;;;;15.30;94.39;97178.06;6091969;23;20012;-73
2022/10/03 05:29:14;;;;;;;11.38;9.48;;;;;;;15.40;94.23;97185.72;6167109;23;20023;-74
2022/10/03 05:32:12;;;;;;;32.17;14.52;;;;;;;15.33;93.66;97140.09;6141761;23;20406;-73
2022/10/03 05:34:49;;;;;;;10.50;7.88;;;;;;;15.39;94.04;97160.75;6116800;23;20020;-73
2022/10/03 05:37:19;;;;;;;15.75;12.85;;;;;;;15.34;92.92;97147.09;6117262;23;20016;-74
2022/10/03 05:40:13;;;;;;;13.82;10.18;;;;;;;15.39;93.18;97131.22;6141964;23;20068;-74
2022/10/03 05:42:54;;;;;;;12.57;9.00;;;;;;;15.37;93.14;97105.59;6128796;23;20028;-73
2022/10/03 05:45:47;;;;;;;12.77;8.45;;;;;;;15.51;92.97;97128.78;6140909;23;20012;-73
2022/10/03 05:48:21;;;;;;;12.50;8.20;;;;;;;15.55;91.74;97120.16;6166573;23;20493;-73
2022/10/03 05:51:12;;;;;;;;;;;;;;;15.62;91.26;97120.16;6141885;23;20020;-73
2022/10/03 05:54:01;;;;;;;14.80;8.90;;;;;;;15.60;90.93;97108.78;6052151;23;20027;-72
2022/10/03 05:56:53;;;;;;;16.35;10.93;;;;;;;15.59;90.51;97109.81;6073997;23;20022;-73
2022/10/03 05:59:42;;;;;;;10.15;7.38;;;;;;;15.65;90.24;97100.13;6065322;23;20024;-72
2022/10/03 06:02:39;;;;;;;11.15;6.75;;;;;;;15.64;89.65;97109.22;6038399;23;20343;-75
2022/10/03 06:06:04;;;;;;;14.75;10.02;;;;;;;15.55;89.39;97111.28;6087786;23;20025;-72
2022/10/03 06:08:40;;;;;;;17.73;10.15;;;;;;;15.54;90.23;97105.06;5995904;23;20057;-73
2022/10/03 06:11:26;;;;;;;10.32;7.78;;;;;;;15.57;89.94;97112.72;6002308;23;20180;-74
2022/10/03 06:14:08;;;;;;;12.60;8.50;;;;;;;15.56;89.29;97099.50;6002961;23;20125;-78
2022/10/03 06:16:47;;;;;;;15.65;9.88;;;;;;;15.46;89.52;97091.78;6011435;23;20019;-76
2022/10/03 06:19:37;;;;;;;12.02;9.32;;;;;;;15.47;89.91;97093.44;5997595;23;20100;-76
2022/10/03 06:22:29;;;;;;;17.20;8.90;;;;;;;15.46;90.18;97099.03;5996138;23;20362;-77
2022/10/03 06:25:17;;;;;;;15.73;9.32;;;;;;;15.38;89.75;97100.03;5998178;23;20026;-78
2022/10/03 06:28:06;;;;;;;17.42;10.07;;;;;;;15.40;90.04;97078.34;6030019;23;20074;-77
2022/10/03 06:31:10;;;;;;;16.00;8.82;;;;;;;15.45;90.10;97079.41;6041947;23;20148;-78
2022/10/03 06:33:57;;;;;;;11.02;7.07;;;;;;;15.43;89.61;97086.84;6107044;23;20017;-73
2022/10/03 06:36:57;;;;;;;11.05;8.25;;;;;;;15.36;89.18;97096.69;6107762;23;20013;-73
2022/10/03 06:39:40;;;;;;;12.57;7.93;;;;;;;15.34;89.11;97080.00;6037213;23;20022;-74
2022/10/03 06:42:36;;;;;;;16.42;7.03;;;;;;;15.50;88.15;97111.84;6025255;23;20014;-74
2022/10/03 06:45:22;;;;;;;14.73;8.07;;;;;;;15.50;87.63;97093.03;6094647;23;20542;-73
2022/10/03 06:48:08;;;;;;;10.63;6.22;;;;;;;15.49;87.41;97085.19;6112007;23;20538;-72
2022/10/03 06:51:03;;;;;;;6.93;5.22;;;;;;;15.53;87.59;97098.00;6112011;23;20041;-72
2022/10/03 06:54:06;;;;;;;12.35;8.13;;;;;;;15.47;86.84;97088.06;6137823;23;20020;-74
2022/10/03 06:56:49;;;;;;;11.85;8.20;;;;;;;15.42;87.59;97090.53;6080232;23;20397;-73
2022/10/03 06:59:13;;;;;;;10.93;7.22;;;;;;;15.47;87.40;97089.91;6079886;23;20022;-73
2022/10/03 07:01:56;;;;;;;12.65;7.63;;;;;;;15.47;86.51;97097.97;6079576;23;20044;-71
2022/10/03 07:05:01;;;;;;;15.90;8.02;;;;;;;15.39;87.17;97095.47;6054896;23;20361;-71
2022/10/03 07:07:46;;;;;;;10.00;7.35;;;;;;;15.31;86.86;97099.19;5968828;23;20019;-71
2022/10/03 07:10:23;;;;;;;20.08;7.35;;;;;;;15.17;87.68;97113.56;6002125;23;20030;-72
2022/10/03 07:13:09;;;;;;;15.15;7.47;;;;;;;15.03;88.10;97109.16;6004314;23;20328;-71
2022/10/03 07:15:47;;;;;;;9.35;6.65;;;;;;;15.04;88.60;97129.59;6049567;23;20022;-70
2022/10/03 07:18:28;;;;;;;12.90;6.72;;;;;;;15.00;88.42;97104.22;6049966;23;20022;-70
2022/10/03 07:21:19;;;;;;;8.60;5.25;;;;;;;15.10;88.58;97116.25;6054442;23;20029;-72
2022/10/03 07:23:47;;;;;;;10.85;5.15;;;;;;;14.98;88.89;97111.63;6049939;23;20018;-71
2022/10/03 07:26:29;;;;;;;11.65;6.82;;;;;;;14.92;88.87;97105.19;6053822;23;20114;-72
2022/10/03 07:29:10;;;;;;;11.05;5.60;;;;;;;14.89;89.08;97114.50;6113085;23;20021;-72
2022/10/03 07:31:54;;;;;;;12.77;6.72;;;;;;;14.88;88.96;97112.84;6138063;23;20348;-70
2022/10/03 07:34:45;;;;;;;9.73;6.55;;;;;;;14.82;89.74;97110.09;6137550;23;20024;-72
2022/10/03 07:40:35;;;;;;;10.63;6.60;;;;;;;14.74;90.20;97097.69;6228794;22;20015;-72
2022/10/03 07:43:34;;;;;;;11.93;6.70;;;;;;;14.76;90.21;97117.09;6203540;22;20012;-73
2022/10/03 07:46:29;;;;;;;9.88;6.82;;;;;;;14.69;90.48;97100.13;6228960;22;20466;-75
2022/10/03 07:49:03;;;;;;;16.58;8.20;;;;;;;14.74;90.40;97108.41;6228845;22;20034;-71
2022/10/03 07:51:33;;;;;;;10.70;4.97;;;;;;;14.85;89.91;97110.53;6203650;22;20012;-71
2022/10/03 07:54:10;;;;;;;8.25;6.43;;;;;;;14.72;89.88;97117.66;6229217;22;20016;-71
2022/10/03 07:57:02;;;;;;;14.65;6.20;;;;;;;14.71;89.73;97106.13;6230917;22;20069;-72
2022/10/03 07:59:58;;;;;;;6.93;4.43;;;;;;;14.75;89.89;97104.72;6229094;22;20023;-72
2022/10/03 08:02:42;;;;;;;11.68;5.88;;;;;;;14.73;89.55;97095.19;6229473;22;20043;-71
2022/10/03 08:05:42;;;;;;;10.35;6.50;;;;;;;14.72;89.69;97134.59;6228848;22;20020;-71
2022/10/03 08:08:10;;;;;;;5.55;4.20;;;;;;;14.74;89.51;97134.41;6196598;22;20030;-72
2022/10/03 08:11:04;;;;;;;5.53;4.47;;;;;;;14.67;89.53;97144.28;6240341;22;20081;-72
2022/10/03 08:14:08;;;;;;;6.85;4.72;;;;;;;14.22;89.55;97169.66;6217379;22;20022;-71
2022/10/03 08:16:58;;;;;;;5.78;4.18;;;;;;;13.93;90.23;97158.03;6230255;22;20328;-71
2022/10/03 08:19:47;;;;;;;4.05;2.72;;;;;;;13.83;90.98;97168.25;6210604;22;20039;-73
2022/10/03 08:22:12;;;;;;;4.70;3.00;;;;;;;13.59;91.21;97149.84;6229361;22;20019;-72
2022/10/03 08:24:36;;;;;;;4.40;3.03;;;;;;;13.52;91.68;97160.50;6230528;22;20026;-73
2022/10/03 08:27:36;;;;;;;5.47;3.28;;;;;;;13.57;92.43;97174.13;6228790;22;20026;-71
2022/10/03 08:30:20;;;;;;;4.65;3.17;;;;;;;13.58;92.46;97174.97;6083355;23;20028;-73
2022/10/03 08:32:59;;;;;;;2.65;2.10;;;;;;;13.58;92.55;97199.88;6107705;23;20040;-72
2022/10/03 08:36:02;;;;;;;4.80;2.40;;;;;;;13.54;92.28;97190.59;6083227;23;20041;-72
2022/10/03 08:38:42;;;;;;;4.97;3.15;;;;;;;13.52;91.76;97186.44;6088999;23;20064;-72
2022/10/03 08:41:15;;;;;;;5.00;3.03;;;;;;;13.36;91.65;97188.31;6082920;23;20523;-75
2022/10/03 08:44:18;;;;;;;4.10;3.15;;;;;;;13.35;92.33;97175.94;6034782;23;20017;-73
2022/10/03 08:47:00;;;;;;;3.67;2.42;;;;;;;13.41;92.59;97174.38;6084081;23;20021;-73
2022/10/03 08:50:00;;;;;;;3.33;2.67;;;;;;;13.52;92.71;97181.09;6101361;23;20116;-75
2022/10/03 08:52:28;;;;;;;2.58;2.35;;;;;;;13.39;92.49;97187.94;6083256;23;20044;-73
2022/10/03 08:54:55;;;;;;;3.25;2.50;;;;;;;13.41;92.07;97182.41;6083293;23;20115;-74
2022/10/03 08:57:24;;;;;;;2.75;2.33;;;;;;;13.30;92.26;97188.22;6083660;23;20013;-74
2022/10/03 09:00:07;;;;;;;7.88;2.90;;;;;;;13.31;92.45;97198.75;6083387;23;20044;-75
2022/10/03 09:02:59;;;;;;;4.07;2.97;;;;;;;13.30;92.85;97205.13;6108799;23;20025;-74
2022/10/03 09:05:52;;;;;;;3.13;2.33;;;;;;;13.29;93.51;97203.44;6203912;22;20016;-74
2022/10/03 09:08:43;;;;;;;2.92;2.13;;;;;;;13.47;93.93;97200.38;6228946;22;20011;-76
2022/10/03 09:11:29;;;;;;;3.85;2.65;;;;;;;13.49;93.72;97200.19;6229285;22;20026;-75
2022/10/03 09:14:09;;;;;;;4.20;2.63;;;;;;;13.54;93.16;97200.47;6229355;22;20015;-74
2022/10/03 09:16:50;;;;;;;4.50;2.78;;;;;;;13.59;93.12;97182.81;6230422;22;20451;-74
2022/10/03 09:19:56;;;;;;;3.63;2.83;;;;;;;13.74;93.34;97196.16;6230968;22;20030;-72
2022/10/03 09:22:46;;;;;;;3.47;2.90;;;;;;;13.82;92.71;97199.56;6162396;22;20532;-73
2022/10/03 09:25:28;;;;;;;6.95;3.08;;;;;;;13.79;92.30;97196.41;6203031;22;20015;-74
2022/10/03 09:28:12;;;;;;;3.92;2.25;;;;;;;13.87;91.97;97204.34;6228600;22;20089;-75
2022/10/03 09:30:52;;;;;;;3.08;2.78;;;;;;;13.81;91.88;97208.59;6202926;22;20011;-73
2022/10/03 09:33:38;;;;;;;5.75;3.45;;;;;;;13.90;92.08;97201.28;6239421;22;20089;-74
2022/10/03 09:36:41;;;;;;;8.25;3.47;;;;;;;13.94;92.18;97205.25;6228465;22;20069;-75
2022/10/03 09:39:40;;;;;;;4.30;2.95;;;;;;;13.94;91.89;97207.09;6082353;23;20470;-74
2022/10/03 09:42:28;;;;;;;7.20;3.42;;;;;;;13.92;91.63;97207.28;6020529;23;20081;-76
2022/10/03 09:45:14;;;;;;;2.53;2.22;;;;;;;13.88;91.70;97208.69;6021207;23;20395;-73
2022/10/03 09:47:48;;;;;;;2.85;2.17;;;;;;;13.94;91.72;97207.09;5996183;23;20014;-74
2022/10/03 09:50:21;;;;;;;2.88;2.15;;;;;;;14.14;92.53;97224.19;5996417;23;20059;-73
2022/10/03 09:53:19;;;;;;;3.50;2.10;;;;;;;14.28;92.25;97223.31;6027003;23;20050;-73
2022/10/03 09:56:11;;;;;;;2.65;2.25;;;;;;;14.35;92.00;97223.34;6027917;23;20053;-74
2022/10/03 09:58:44;;;;;;;3.45;2.55;;;;;;;14.34;91.72;97233.25;6030671;23;20402;-74
2022/10/03 10:01:15;;;;;;;3.47;2.40;;;;;;;14.26;91.44;97232.56;6021677;23;20082;-73
2022/10/03 10:03:45;;;;;;;3.63;2.33;;;;;;;14.17;91.47;97240.72;6020567;23;20030;-74
2022/10/03 10:06:18;;;;;;;3.65;1.75;;;;;;;14.08;91.07;97244.56;5996306;23;20018;-75
2022/10/03 10:08:51;;;;;;;0.73;0.57;;;;;;;14.14;90.14;97241.09;6027935;23;20076;-73
2022/10/03 10:11:42;;;;;;;3.00;1.48;;;;;;;14.04;89.08;97245.94;6021113;23;20019;-73
2022/10/03 10:14:29;;;;;;;2.05;1.23;;;;;;;13.75;88.45;97254.06;5996657;23;20015;-74
2022/10/03 10:17:25;;;;;;;2.70;1.17;;;;;;;13.84;88.75;97266.31;6124688;23;20012;-76
2022/10/03 10:20:20;;;;;;;1.20;1.15;;;;;;;13.67;86.76;97272.88;6186472;22;20342;-77
2022/10/03 10:23:09;;;;;;;3.95;2.63;;;;;;;12.97;86.98;97279.53;6248250;22;20015;-76
2022/10/03 10:25:58;;;;;;;4.35;2.35;;;;;;;12.82;88.36;97277.81;6237901;22;20446;-74
2022/10/03 10:28:51;;;;;;;3.00;2.35;;;;;;;12.59;88.44;97297.41;6229211;22;20454;-73
2022/10/03 10:31:19;;;;;;;4.35;2.60;;;;;;;12.43;89.52;97278.81;6230034;22;20540;-74
2022/10/03 10:34:08;;;;;;;3.83;2.83;;;;;;;12.59;89.39;97273.34;6232320;22;20012;-74
2022/10/03 10:36:51;;;;;;;4.00;2.65;;;;;;;12.64;89.59;97280.84;6231754;22;20038;-73
2022/10/03 10:39:20;;;;;;;4.00;2.65;;;;;;;12.79;89.67;97278.16;6232562;22;20030;-75
2022/10/03 10:42:22;;;;;;;3.58;3.17;;;;;;;13.06;90.11;97282.94;6234104;22;20454;-79
2022/10/03 10:45:08;;;;;;;6.93;3.15;;;;;;;13.35;89.59;97284.81;6246077;22;20031;-77
2022/10/03 10:47:52;;;;;;;5.43;2.40;;;;;;;13.68;88.62;97279.91;6241452;22;20016;-78
2022/10/03 10:50:35;;;;;;;4.95;2.50;;;;;;;13.71;86.79;97290.25;6237354;22;20012;-76
2022/10/03 10:53:36;;;;;;;3.25;2.72;;;;;;;13.58;86.35;97293.59;6237163;22;20037;-77
2022/10/03 10:56:32;;;;;;;5.18;3.38;;;;;;;13.62;87.20;97310.94;6232680;22;20011;-69
2022/10/03 10:59:02;;;;;;;;;;;;;;;13.10;84.24;97302.94;6234640;22;20015;-70
2022/10/03 11:02:05;;;;;;;4.25;2.45;;;;;;;13.18;85.51;97323.47;6230503;22;19950;-70
2022/10/03 11:04:30;;;;;;;3.42;2.22;;;;;;;12.98;85.50;97334.66;6084104;23;20020;-70
2022/10/03 11:07:11;;;;;;;3.63;3.05;;;;;;;12.91;85.12;97340.91;6099206;23;20022;-69
2022/10/03 11:10:15;;;;;;;4.57;3.33;;;;;;;12.59;84.22;97344.66;6091612;23;20084;-71
2022/10/03 11:13:08;;;;;;;4.70;3.20;;;;;;;12.57;84.90;97355.53;6093633;23;20017;-71
2022/10/03 11:15:51;;;;;;;5.25;2.97;;;;;;;12.36;85.30;97371.38;6063494;23;20017;-71
2022/10/03 11:18:38;;;;;;;5.82;3.25;;;;;;;12.32;85.49;97360.19;6116561;23;20449;-71
2022/10/03 11:21:27;;;;;;;7.75;2.95;;;;;;;12.44;85.87;97374.00;6087299;23;20371;-72
2022/10/03 11:24:16;;;;;;;6.50;2.95;;;;;;;12.33;84.26;97383.25;6093899;23;20107;-74
2022/10/03 11:27:06;;;;;;;2.67;2.47;;;;;;;12.54;83.46;97379.09;6109111;23;20096;-72
2022/10/03 11:29:52;;;;;;;5.85;3.10;;;;;;;12.57;83.17;97384.94;6093699;23;20018;-75
2022/10/03 11:32:35;;;;;;;6.00;3.95;;;;;;;12.65;82.66;97394.72;6118489;23;20468;-72
2022/10/03 11:35:26;;;;;;;9.07;2.80;;;;;;;12.83;83.14;97391.78;6087807;23;20013;-75
2022/10/03 11:38:12;;;;;;;4.82;3.53;;;;;;;12.57;82.27;97379.59;6060032;23;20013;-73
2022/10/03 11:40:45;;;;;;;3.75;2.55;;;;;;;12.63;81.48;97394.94;6153769;22;20011;-72
2022/10/03 11:43:37;;;;;;;6.53;3.17;;;;;;;12.65;81.44;97392.06;6230618;22;20098;-76
2022/10/03 11:46:26;;;;;;;3.22;2.63;;;;;;;12.63;79.96;97402.97;6203582;22;20788;-72
2022/10/03 11:49:05;;;;;;;3.47;2.90;;;;;;;12.69;78.88;97410.25;6223949;22;20027;-75
2022/10/03 11:51:42;;;;;;;5.45;2.88;;;;;;;12.57;78.14;97402.81;6226945;22;20136;-77
2022/10/03 11:54:36;;;;;;;5.07;2.90;;;;;;;12.52;78.36;97419.41;6230317;22;20016;-74
2022/10/03 11:57:28;;;;;;;3.00;2.63;;;;;;;12.45;77.20;97418.41;6200656;22;20016;-74
2022/10/03 12:00:16;;;;;;;3.75;2.88;;;;;;;12.35;77.76;97433.84;6231031;22;20020;-71
2022/10/03 12:02:54;;;;;;;2.30;1.85;;;;;;;12.38;78.35;97438.84;6230975;22;20023;-75
2022/10/03 12:05:51;;;;;;;1.75;1.60;;;;;;;12.52;76.50;97440.78;6229235;22;20507;-75
2022/10/03 12:11:25;;;;;;;1.60;1.50;;;;;;;12.72;74.11;97479.41;6230416;22;20024;-74
2022/10/03 12:14:02;;;;;;;3.17;2.05;;;;;;;12.61;72.95;97470.97;6229796;22;20022;-77
2022/10/03 12:16:31;;;;;;;1.70;1.58;;;;;;;12.49;72.19;97502.59;6231050;22;20012;-77
2022/10/03 12:19:31;;;;;;;1.60;1.50;;;;;;;12.71;70.73;97488.44;6229526;22;20015;-74
2022/10/03 12:22:25;;;;;;;2.35;1.95;;;;;;;12.64;70.27;97490.13;6229529;22;20038;-73
2022/10/03 12:24:56;;;;;;;3.42;1.67;;;;;;;12.13;69.42;97496.03;6205663;22;20042;-73
2022/10/03 12:27:35;;;;;;;0.85;0.85;;;;;;;12.10;70.56;97510.56;6230190;22;20016;-75
2022/10/03 12:30:08;;;;;;;6.35;1.90;;;;;;;12.06;70.66;97509.25;6237435;22;20364;-74
2022/10/03 12:32:44;;;;;;;6.68;1.80;;;;;;;12.01;69.27;97519.59;6186611;22;20065;-74
2022/10/03 12:35:44;;;;;;;1.95;1.42;;;;;;;11.91;71.20;97522.47;6230683;22;20067;-76
2022/10/03 12:39:02;;;;;;;0.85;0.77;;;;;;;11.84;71.33;97555.34;6083167;23;20647;-75
2022/10/03 12:41:57;;;;;;;1.70;1.60;;;;;;;11.33;73.22;97543.13;6020895;23;20023;-76
2022/10/03 12:44:31;;;;;;;2.38;1.52;;;;;;;10.88;76.38;97561.22;5941507;23;20051;-75
2022/10/03 12:47:14;;;;;;;4.93;2.13;;;;;;;10.81;76.23;97554.88;5964623;23;20758;-72
2022/10/03 12:49:58;;;;;;;1.75;1.65;;;;;;;11.14;76.32;97561.13;5964374;23;20020;-72
2022/10/03 12:52:32;;;;;;;3.72;2.13;;;;;;;11.12;74.91;97578.28;5939977;23;20023;-72
2022/10/03 12:55:25;;;;;;;1.30;1.23;;;;;;;11.29;74.13;97575.47;5964382;23;20031;-72
2022/10/03 12:57:58;;;;;;;2.00;1.80;;;;;;;11.13;74.70;97586.13;5963751;23;20489;-72
2022/10/03 13:00:27;;;;;;;2.70;1.90;;;;;;;11.23;73.22;97599.31;5964444;23;20019;-74
2022/10/03 13:03:10;;;;;;;1.42;1.33;;;;;;;11.37;71.91;97603.19;5941018;23;20049;-74
2022/10/03 13:06:13;;;;;;;2.63;2.10;;;;;;;11.16;71.96;97606.31;5973793;23;20632;-72
2022/10/03 13:09:03;;;;;;;3.92;1.45;;;;;;;11.27;71.40;97614.84;5969171;23;20396;-73
2022/10/03 13:11:39;;;;;;;4.78;2.53;;;;;;;11.24;69.52;97639.16;5941480;23;20020;-73
2022/10/03 13:14:28;;;;;;;2.05;1.50;;;;;;;11.25;68.32;97630.16;5977427;23;20023;-73
2022/10/03 13:16:53;;;;;;;1.02;1.00;;;;;;;11.04;67.75;97640.44;6136640;23;20016;-73
2022/10/03 13:19:22;;;;;;;2.10;1.48;;;;;;;10.93;68.31;97653.22;6136981;23;20183;-71
2022/10/03 13:21:53;;;;;;;2.50;1.63;;;;;;;10.79;69.38;97654.66;6191200;22;20459;-70
2022/10/03 13:24:31;;;;;;;1.65;1.17;;;;;;;11.05;67.65;97654.59;6239777;22;20102;-72
2022/10/03 13:26:58;;;;;;;1.58;1.48;;;;;;;10.80;67.66;97656.31;6229595;22;20453;-71
2022/10/03 13:29:29;;;;;;;1.92;1.40;;;;;;;10.76;68.32;97655.78;6202600;22;20027;-72
2022/10/03 13:32:09;;;;;;;2.17;1.45;;;;;;;10.86;67.76;97655.66;6229294;22;20437;-72
2022/10/03 13:38:30;;;;;;;2.53;1.55;;;;;;;10.75;68.08;97674.59;6246049;22;20034;-71
2022/10/03 13:41:19;;;;;;;1.00;0.90;;;;;;;10.76;67.33;97677.13;6245607;22;20026;-72
2022/10/03 13:44:13;;;;;;;1.23;1.15;;;;;;;10.71;68.26;97681.25;6215211;22;20072;-71
2022/10/03 13:46:43;;;;;;;1.33;1.23;;;;;;;10.67;67.41;97679.91;6202576;22;20011;-71
2022/10/03 13:49:33;;;;;;;2.22;1.25;;;;;;;10.58;68.33;97687.00;6230053;22;20098;-71
2022/10/03 13:52:16;;;;;;;1.58;1.48;;;;;;;10.72;66.33;97685.59;6229887;22;20015;-72
2022/10/03 13:55:16;;;;;;;1.77;1.25;;;;;;;10.49;66.15;97691.47;6229482;22;20043;-70
2022/10/03 13:58:01;;;;;;;2.83;1.40;;;;;;;10.24;66.47;97707.41;6227907;22;20023;-71
2022/10/03 14:00:35;;;;;;;1.50;1.30;;;;;;;10.46;66.96;97721.06;6228380;22;20027;-71
2022/10/03 14:03:18;;;;;;;1.95;1.23;;;;;;;10.24;67.73;97718.06;6203048;22;20011;-71
2022/10/03 14:05:58;;;;;;;1.95;1.75;;;;;;;10.28;67.93;97722.91;6228733;22;20015;-71
2022/10/03 14:08:38;;;;;;;1.80;1.20;;;;;;;10.46;66.85;97722.91;6231422;22;20023;-71
2022/10/03 14:11:37;;;;;;;1.27;0.88;;;;;;;10.27;66.77;97736.41;6228664;22;20027;-71
2022/10/03 14:14:14;;;;;;;0.82;0.82;;;;;;;10.27;67.15;97741.75;6228010;22;20008;-71
2022/10/03 14:16:59;;;;;;;1.67;1.23;;;;;;;10.30;66.34;97741.41;6229377;22;20383;-69
2022/10/03 14:19:43;;;;;;;1.23;1.15;;;;;;;10.19;67.05;97755.81;6202767;22;20351;-70
2022/10/03 14:22:53;;;;;;;1.23;1.13;;;;;;;10.20;67.52;97754.81;6229779;22;20106;-71
2022/10/03 14:25:20;;;;;;;0.73;0.73;;;;;;;10.17;67.63;97763.06;6107050;23;20535;-71
2022/10/03 14:28:17;;;;;;;2.05;0.80;;;;;;;10.34;66.15;97761.44;6082078;23;20468;-69
2022/10/03 14:30:53;;;;;;;0.90;0.90;;;;;;;10.15;66.82;97752.59;6092153;23;20017;-78
2022/10/03 14:33:51;;;;;;;2.13;1.23;;;;;;;10.04;67.06;97759.97;6070944;23;20444;-77
2022/10/03 14:36:35;;;;;;;2.42;1.27;;;;;;;9.96;67.38;97776.69;6060125;23;20017;-79
2022/10/03 14:39:14;;;;;;;1.40;1.30;;;;;;;10.00;67.02;97772.75;6035804;23;20013;-75
2022/10/03 14:41:54;;;;;;;26.30;1.63;;;;;;;10.00;66.45;97766.59;6083395;23;20520;-72
2022/10/03 14:44:24;;;;;;;1.02;0.90;;;;;;;9.95;67.08;97779.50;6108943;23;20021;-76
2022/10/03 14:47:12;;;;;;;3.47;1.48;;;;;;;9.88;67.41;97771.28;6107804;23;20138;-70
2022/10/03 14:49:48;;;;;;;0.73;0.73;;;;;;;9.85;67.57;97766.25;6106880;23;20018;-70
2022/10/03 14:52:21;;;;;;;1.15;0.82;;;;;;;9.81;67.40;97779.06;6107493;23;20021;-70
2022/10/03 14:54:52;;;;;;;1.55;1.27;;;;;;;9.76;67.91;97778.66;6107354;23;20021;-70
2022/10/03 14:57:31;;;;;;;1.80;0.98;;;;;;;9.85;67.21;97792.88;6106767;23;20392;-69
2022/10/03 14:59:57;;;;;;;0.65;0.65;;;;;;;9.91;66.78;97783.47;6082344;23;20052;-70
2022/10/03 15:02:32;;;;;;;1.35;1.10;;;;;;;9.81;66.74;97791.53;6196352;22;20015;-70
2022/10/03 15:05:11;;;;;;;1.75;1.30;;;;;;;9.77;67.45;97782.16;6231301;22;20023;-77
2022/10/03 15:07:43;;;;;;;1.30;1.10;;;;;;;9.67;67.58;97792.03;6204150;22;20106;-78
2022/10/03 15:10:22;;;;;;;2.00;0.80;;;;;;;9.79;67.18;97789.00;6142122;23;20107;-77
2022/10/03 15:12:52;;;;;;;2.53;1.63;;;;;;;9.74;66.98;97783.28;6166756;23;20043;-79
2022/10/03 15:15:25;;;;;;;0.70;0.70;;;;;;;9.81;67.60;97789.69;6143963;23;20032;-80
2022/10/03 15:17:53;;;;;;;1.10;1.00;;;;;;;9.84;67.24;97791.19;6169677;23;20013;-69
2022/10/03 15:20:25;;;;;;;1.70;1.15;;;;;;;9.82;66.95;97798.50;6167253;23;20019;-71